sensor_id;sensor_type;location;lat;lon;timestamp;pressure;altitude;pressure_sealevel;temperature;humidity
75424;BME280;64005;55.160;36.002;2023-04-15T00:02:13;99993.94;;;0.42;34.70
75424;BME280;64005;55.160;36.002;2023-04-15T00:04:41;99993.78;;;0.32;34.63
75424;BME280;64005;55.160;36.002;2023-04-15T00:07:08;100004.44;;;0.33;34.59
75424;BME280;64005;55.160;36.002;2023-04-15T00:09:36;100006.03;;;0.29;34.61
75424;BME280;64005;55.160;36.002;2023-04-15T00:12:04;100007.00;;;0.23;34.44
75424;BME280;64005;55.160;36.002;2023-04-15T00:14:33;100015.69;;;0.20;35.03
75424;BME280;64005;55.160;36.002;2023-04-15T00:17:01;100005.16;;;0.12;34.69
75424;BME280;64005;55.160;36.002;2023-04-15T00:19:29;100015.97;;;0.07;34.86
75424;BME280;64005;55.160;36.002;2023-04-15T00:21:57;100011.75;;;-0.01;34.35
75424;BME280;64005;55.160;36.002;2023-04-15T00:24:25;100011.16;;;-0.03;34.79
75424;BME280;64005;55.160;36.002;2023-04-15T00:26:52;100020.09;;;-0.07;35.47
75424;BME280;64005;55.160;36.002;2023-04-15T00:29:20;100022.69;;;-0.12;35.21
75424;BME280;64005;55.160;36.002;2023-04-15T00:31:49;100023.44;;;-0.17;34.80
75424;BME280;64005;55.160;36.002;2023-04-15T00:34:18;100008.84;;;-0.34;34.96
75424;BME280;64005;55.160;36.002;2023-04-15T00:36:46;100029.75;;;-0.28;35.66
75424;BME280;64005;55.160;36.002;2023-04-15T00:39:14;100027.16;;;-0.34;34.88
75424;BME280;64005;55.160;36.002;2023-04-15T00:41:42;100028.13;;;-0.41;36.01
75424;BME280;64005;55.160;36.002;2023-04-15T00:44:10;100031.81;;;-0.47;35.14
75424;BME280;64005;55.160;36.002;2023-04-15T00:46:38;100032.28;;;-0.50;35.18
75424;BME280;64005;55.160;36.002;2023-04-15T00:49:07;100041.78;;;-0.52;35.95
75424;BME280;64005;55.160;36.002;2023-04-15T00:51:34;100047.13;;;-0.57;36.35
75424;BME280;64005;55.160;36.002;2023-04-15T00:54:02;100049.25;;;-0.59;35.76
75424;BME280;64005;55.160;36.002;2023-04-15T00:56:30;100040.72;;;-0.63;35.84
75424;BME280;64005;55.160;36.002;2023-04-15T00:59:01;100050.69;;;-0.68;36.40
75424;BME280;64005;55.160;36.002;2023-04-15T01:01:29;100061.53;;;-0.73;36.51
75424;BME280;64005;55.160;36.002;2023-04-15T01:03:57;100055.69;;;-0.77;36.81
75424;BME280;64005;55.160;36.002;2023-04-15T01:06:27;100062.94;;;-0.83;36.41
75424;BME280;64005;55.160;36.002;2023-04-15T01:08:56;100070.06;;;-0.82;36.62
75424;BME280;64005;55.160;36.002;2023-04-15T01:11:24;100057.47;;;-0.83;36.10
75424;BME280;64005;55.160;36.002;2023-04-15T01:13:52;100068.38;;;-0.83;37.05
75424;BME280;64005;55.160;36.002;2023-04-15T01:16:22;100071.84;;;-0.87;36.50
75424;BME280;64005;55.160;36.002;2023-04-15T01:18:49;100071.84;;;-0.87;36.77
75424;BME280;64005;55.160;36.002;2023-04-15T01:21:17;100067.22;;;-0.87;36.52
75424;BME280;64005;55.160;36.002;2023-04-15T01:23:47;100051.72;;;-1.04;36.45
75424;BME280;64005;55.160;36.002;2023-04-15T01:26:16;100079.44;;;-0.89;37.05
75424;BME280;64005;55.160;36.002;2023-04-15T01:28:44;100084.88;;;-0.89;37.10
75424;BME280;64005;55.160;36.002;2023-04-15T01:31:13;100080.97;;;-0.93;37.04
75424;BME280;64005;55.160;36.002;2023-04-15T01:33:42;100087.00;;;-0.91;36.64
75424;BME280;64005;55.160;36.002;2023-04-15T01:36:28;100083.09;;;-0.95;37.22
75424;BME280;64005;55.160;36.002;2023-04-15T01:38:56;100085.00;;;-0.96;36.86
75424;BME280;64005;55.160;36.002;2023-04-15T01:41:26;100082.50;;;-0.97;36.92
75424;BME280;64005;55.160;36.002;2023-04-15T01:43:55;100092.34;;;-0.96;37.53
75424;BME280;64005;55.160;36.002;2023-04-15T01:46:24;100094.25;;;-0.97;37.52
75424;BME280;64005;55.160;36.002;2023-04-15T01:48:53;100099.94;;;-0.98;37.45
75424;BME280;64005;55.160;36.002;2023-04-15T01:51:22;100091.16;;;-1.00;36.99
75424;BME280;64005;55.160;36.002;2023-04-15T01:53:51;100092.81;;;-0.99;37.40
75424;BME280;64005;55.160;36.002;2023-04-15T01:56:23;100095.09;;;-0.96;37.19
75424;BME280;64005;55.160;36.002;2023-04-15T01:58:53;100090.47;;;-0.96;37.71
75424;BME280;64005;55.160;36.002;2023-04-15T02:01:22;100099.84;;;-0.92;37.06
75424;BME280;64005;55.160;36.002;2023-04-15T02:03:50;100105.91;;;-0.90;37.56
75424;BME280;64005;55.160;36.002;2023-04-15T02:06:19;100104.84;;;-0.89;37.68
75424;BME280;64005;55.160;36.002;2023-04-15T02:08:48;100101.06;;;-0.88;37.45
75424;BME280;64005;55.160;36.002;2023-04-15T02:11:17;100114.00;;;-0.83;37.26
75424;BME280;64005;55.160;36.002;2023-04-15T02:13:46;100124.81;;;-0.76;37.71
75424;BME280;64005;55.160;36.002;2023-04-15T02:16:17;100115.66;;;-0.70;37.42
75424;BME280;64005;55.160;36.002;2023-04-15T02:18:46;100122.09;;;-0.65;37.67
75424;BME280;64005;55.160;36.002;2023-04-15T02:21:15;100121.63;;;-0.62;37.49
75424;BME280;64005;55.160;36.002;2023-04-15T02:23:45;100126.97;;;-0.55;37.39
75424;BME280;64005;55.160;36.002;2023-04-15T02:26:14;100126.25;;;-0.51;36.90
75424;BME280;64005;55.160;36.002;2023-04-15T02:28:42;100136.25;;;-0.45;36.81
75424;BME280;64005;55.160;36.002;2023-04-15T02:31:11;100133.41;;;-0.38;36.95
75424;BME280;64005;55.160;36.002;2023-04-15T02:33:41;100133.28;;;-0.31;36.83
75424;BME280;64005;55.160;36.002;2023-04-15T02:36:10;100142.19;;;-0.24;37.61
75424;BME280;64005;55.160;36.002;2023-04-15T02:38:38;100129.72;;;-0.20;36.50
75424;BME280;64005;55.160;36.002;2023-04-15T02:41:09;100129.34;;;-0.24;37.16
75424;BME280;64005;55.160;36.002;2023-04-15T02:43:37;100135.31;;;-0.15;36.92
75424;BME280;64005;55.160;36.002;2023-04-15T02:46:06;100149.94;;;-0.10;36.96
75424;BME280;64005;55.160;36.002;2023-04-15T02:48:35;100141.81;;;-0.05;36.81
75424;BME280;64005;55.160;36.002;2023-04-15T02:51:16;100143.03;;;-0.01;37.02
75424;BME280;64005;55.160;36.002;2023-04-15T02:53:46;100147.41;;;0.00;36.93
75424;BME280;64005;55.160;36.002;2023-04-15T02:56:14;100153.00;;;0.06;36.95
75424;BME280;64005;55.160;36.002;2023-04-15T02:58:43;100151.00;;;0.13;36.85
75424;BME280;64005;55.160;36.002;2023-04-15T03:01:12;100155.59;;;0.24;36.87
75424;BME280;64005;55.160;36.002;2023-04-15T03:03:41;100169.75;;;0.32;36.56
75424;BME280;64005;55.160;36.002;2023-04-15T03:06:09;100165.22;;;0.38;35.85
75424;BME280;64005;55.160;36.002;2023-04-15T03:08:39;100134.69;;;0.18;35.95
75424;BME280;64005;55.160;36.002;2023-04-15T03:11:08;100166.75;;;0.46;35.81
75424;BME280;64005;55.160;36.002;2023-04-15T03:13:37;100167.59;;;0.46;35.50
75424;BME280;64005;55.160;36.002;2023-04-15T03:16:07;100170.19;;;0.53;35.50
75424;BME280;64005;55.160;36.002;2023-04-15T03:18:36;100172.66;;;0.54;36.35
75424;BME280;64005;55.160;36.002;2023-04-15T03:21:05;100177.44;;;0.59;35.77
75424;BME280;64005;55.160;36.002;2023-04-15T03:23:34;100176.91;;;0.62;36.14
75424;BME280;64005;55.160;36.002;2023-04-15T03:26:04;100179.66;;;0.62;35.87
75424;BME280;64005;55.160;36.002;2023-04-15T03:28:33;100170.97;;;0.65;35.93
75424;BME280;64005;55.160;36.002;2023-04-15T03:31:01;100176.78;;;0.68;35.30
75424;BME280;64005;55.160;36.002;2023-04-15T03:33:30;100170.75;;;0.66;35.78
75424;BME280;64005;55.160;36.002;2023-04-15T03:35:58;100178.22;;;0.71;35.23
75424;BME280;64005;55.160;36.002;2023-04-15T03:38:27;100185.44;;;0.77;34.92
75424;BME280;64005;55.160;36.002;2023-04-15T03:40:55;100190.19;;;0.82;34.72
75424;BME280;64005;55.160;36.002;2023-04-15T03:43:26;100190.66;;;0.90;35.63
75424;BME280;64005;55.160;36.002;2023-04-15T03:45:54;100187.16;;;0.95;34.80
75424;BME280;64005;55.160;36.002;2023-04-15T03:48:23;100188.34;;;0.99;35.38
75424;BME280;64005;55.160;36.002;2023-04-15T03:50:51;100190.34;;;1.03;34.63
75424;BME280;64005;55.160;36.002;2023-04-15T03:53:20;100188.31;;;1.10;35.28
75424;BME280;64005;55.160;36.002;2023-04-15T03:55:49;100192.19;;;1.14;34.79
75424;BME280;64005;55.160;36.002;2023-04-15T03:58:17;100194.47;;;1.17;34.78
75424;BME280;64005;55.160;36.002;2023-04-15T04:00:48;100190.72;;;1.24;34.78
75424;BME280;64005;55.160;36.002;2023-04-15T04:03:16;100188.75;;;1.36;34.42
75424;BME280;64005;55.160;36.002;2023-04-15T04:05:45;100201.72;;;1.40;33.95
75424;BME280;64005;55.160;36.002;2023-04-15T04:08:14;100186.25;;;1.34;34.45
75424;BME280;64005;55.160;36.002;2023-04-15T04:10:42;100204.22;;;1.42;34.39
75424;BME280;64005;55.160;36.002;2023-04-15T04:13:11;100202.97;;;1.49;34.11
75424;BME280;64005;55.160;36.002;2023-04-15T04:15:39;100189.50;;;1.48;33.84
75424;BME280;64005;55.160;36.002;2023-04-15T04:18:10;100207.47;;;1.55;33.63
75424;BME280;64005;55.160;36.002;2023-04-15T04:20:38;100209.75;;;1.58;34.12
75424;BME280;64005;55.160;36.002;2023-04-15T04:23:07;100210.06;;;1.62;33.93
75424;BME280;64005;55.160;36.002;2023-04-15T04:25:36;100207.06;;;1.64;34.43
75424;BME280;64005;55.160;36.002;2023-04-15T04:28:05;100210.66;;;1.64;34.20
75424;BME280;64005;55.160;36.002;2023-04-15T04:30:34;100206.84;;;1.65;34.12
75424;BME280;64005;55.160;36.002;2023-04-15T04:33:04;100214.31;;;1.70;34.16
75424;BME280;64005;55.160;36.002;2023-04-15T04:35:34;100227.63;;;1.78;34.24
75424;BME280;64005;55.160;36.002;2023-04-15T04:38:03;100213.22;;;1.71;33.58
75424;BME280;64005;55.160;36.002;2023-04-15T04:40:32;100217.16;;;1.91;33.46
75424;BME280;64005;55.160;36.002;2023-04-15T04:43:00;100213.63;;;1.96;33.76
75424;BME280;64005;55.160;36.002;2023-04-15T04:45:29;100221.63;;;1.97;33.68
75424;BME280;64005;55.160;36.002;2023-04-15T04:47:58;100218.78;;;2.09;33.59
75424;BME280;64005;55.160;36.002;2023-04-15T04:50:26;100218.13;;;2.19;33.06
75424;BME280;64005;55.160;36.002;2023-04-15T04:52:57;100223.44;;;2.25;32.95
75424;BME280;64005;55.160;36.002;2023-04-15T04:55:25;100227.50;;;2.23;32.84
75424;BME280;64005;55.160;36.002;2023-04-15T04:57:54;100229.41;;;2.39;33.16
75424;BME280;64005;55.160;36.002;2023-04-15T05:00:22;100222.63;;;2.47;32.57
75424;BME280;64005;55.160;36.002;2023-04-15T05:02:51;100223.31;;;2.37;32.25
75424;BME280;64005;55.160;36.002;2023-04-15T05:05:20;100228.22;;;2.35;32.33
75424;BME280;64005;55.160;36.002;2023-04-15T05:07:48;100226.38;;;2.40;32.34
75424;BME280;64005;55.160;36.002;2023-04-15T05:10:19;100242.00;;;2.57;32.25
75424;BME280;64005;55.160;36.002;2023-04-15T05:12:48;100225.91;;;2.65;32.31
75424;BME280;64005;55.160;36.002;2023-04-15T05:15:18;100231.03;;;2.78;32.03
75424;BME280;64005;55.160;36.002;2023-04-15T05:17:46;100230.91;;;2.90;32.32
75424;BME280;64005;55.160;36.002;2023-04-15T05:20:15;100232.47;;;2.86;31.98
75424;BME280;64005;55.160;36.002;2023-04-15T05:22:44;100238.44;;;2.78;31.50
75424;BME280;64005;55.160;36.002;2023-04-15T05:25:13;100242.53;;;2.75;31.59
75424;BME280;64005;55.160;36.002;2023-04-15T05:27:43;100235.88;;;2.93;31.71
75424;BME280;64005;55.160;36.002;2023-04-15T05:30:12;100236.78;;;2.99;31.55
75424;BME280;64005;55.160;36.002;2023-04-15T05:32:40;100243.97;;;3.27;31.61
75424;BME280;64005;55.160;36.002;2023-04-15T05:35:09;100247.88;;;3.31;30.73
75424;BME280;64005;55.160;36.002;2023-04-15T05:37:38;100238.97;;;3.45;31.17
75424;BME280;64005;55.160;36.002;2023-04-15T05:40:07;100237.75;;;3.63;31.05
75424;BME280;64005;55.160;36.002;2023-04-15T05:42:36;100242.72;;;3.66;31.20
75424;BME280;64005;55.160;36.002;2023-04-15T05:45:07;100246.63;;;3.70;31.05
75424;BME280;64005;55.160;36.002;2023-04-15T05:47:36;100247.78;;;3.79;30.93
75424;BME280;64005;55.160;36.002;2023-04-15T05:50:05;100241.31;;;3.90;30.88
75424;BME280;64005;55.160;36.002;2023-04-15T05:52:34;100243.16;;;4.12;30.22
75424;BME280;64005;55.160;36.002;2023-04-15T05:55:03;100256.47;;;4.25;30.63
75424;BME280;64005;55.160;36.002;2023-04-15T05:57:32;100248.09;;;4.15;29.83
75424;BME280;64005;55.160;36.002;2023-04-15T06:00:00;100246.41;;;4.09;30.25
75424;BME280;64005;55.160;36.002;2023-04-15T06:02:31;100251.88;;;4.04;29.99
75424;BME280;64005;55.160;36.002;2023-04-15T06:05:01;100259.13;;;4.15;30.51
75424;BME280;64005;55.160;36.002;2023-04-15T06:07:30;100242.84;;;4.13;29.50
75424;BME280;64005;55.160;36.002;2023-04-15T06:09:58;100256.34;;;4.10;30.15
75424;BME280;64005;55.160;36.002;2023-04-15T06:12:27;100254.63;;;4.04;29.74
75424;BME280;64005;55.160;36.002;2023-04-15T06:14:56;100258.53;;;4.13;30.21
75424;BME280;64005;55.160;36.002;2023-04-15T06:17:24;100258.16;;;4.31;29.81
75424;BME280;64005;55.160;36.002;2023-04-15T06:19:54;100261.66;;;4.21;29.38
75424;BME280;64005;55.160;36.002;2023-04-15T06:22:23;100259.25;;;4.30;29.72
75424;BME280;64005;55.160;36.002;2023-04-15T06:24:52;100263.97;;;4.39;29.83
75424;BME280;64005;55.160;36.002;2023-04-15T06:27:21;100265.09;;;4.38;29.41
75424;BME280;64005;55.160;36.002;2023-04-15T06:29:50;100259.59;;;4.38;28.87
75424;BME280;64005;55.160;36.002;2023-04-15T06:32:19;100270.03;;;4.36;29.00
75424;BME280;64005;55.160;36.002;2023-04-15T06:34:47;100267.03;;;4.38;28.80
75424;BME280;64005;55.160;36.002;2023-04-15T06:37:18;100265.66;;;4.40;29.51
75424;BME280;64005;55.160;36.002;2023-04-15T06:39:46;100263.22;;;4.49;28.55
75424;BME280;64005;55.160;36.002;2023-04-15T06:42:15;100273.47;;;4.59;28.68
75424;BME280;64005;55.160;36.002;2023-04-15T06:44:43;100278.31;;;4.78;29.15
75424;BME280;64005;55.160;36.002;2023-04-15T06:47:12;100272.88;;;4.99;29.12
75424;BME280;64005;55.160;36.002;2023-04-15T06:49:41;100274.28;;;5.06;28.81
75424;BME280;64005;55.160;36.002;2023-04-15T06:52:10;100282.13;;;5.25;28.89
75424;BME280;64005;55.160;36.002;2023-04-15T06:54:41;100281.88;;;5.36;27.99
75424;BME280;64005;55.160;36.002;2023-04-15T06:57:10;100293.81;;;5.62;28.35
75424;BME280;64005;55.160;36.002;2023-04-15T06:59:39;100296.59;;;5.72;27.98
75424;BME280;64005;55.160;36.002;2023-04-15T07:02:11;100283.41;;;5.89;27.98
75424;BME280;64005;55.160;36.002;2023-04-15T07:04:40;100286.47;;;6.08;28.31
75424;BME280;64005;55.160;36.002;2023-04-15T07:07:09;100283.72;;;6.23;27.76
75424;BME280;64005;55.160;36.002;2023-04-15T07:09:37;100279.56;;;6.36;28.05
75424;BME280;64005;55.160;36.002;2023-04-15T07:12:07;100285.66;;;6.38;27.26
75424;BME280;64005;55.160;36.002;2023-04-15T07:14:36;100285.38;;;6.45;27.47
75424;BME280;64005;55.160;36.002;2023-04-15T07:17:04;100274.84;;;6.42;27.04
75424;BME280;64005;55.160;36.002;2023-04-15T07:19:33;100276.53;;;6.37;26.84
75424;BME280;64005;55.160;36.002;2023-04-15T07:22:02;100279.00;;;6.49;27.16
75424;BME280;64005;55.160;36.002;2023-04-15T07:24:31;100286.69;;;6.72;27.25
75424;BME280;64005;55.160;36.002;2023-04-15T07:27:00;100280.88;;;6.79;27.06
75424;BME280;64005;55.160;36.002;2023-04-15T07:29:30;100283.94;;;6.67;26.89
75424;BME280;64005;55.160;36.002;2023-04-15T07:31:59;100286.69;;;6.72;27.14
75424;BME280;64005;55.160;36.002;2023-04-15T07:36:55;100254.88;;;6.90;27.17
75424;BME280;64005;55.160;36.002;2023-04-15T07:39:24;100281.56;;;7.20;26.60
75424;BME280;64005;55.160;36.002;2023-04-15T07:41:53;100272.13;;;7.26;26.54
75424;BME280;64005;55.160;36.002;2023-04-15T07:44:22;100278.16;;;7.38;25.40
75424;BME280;64005;55.160;36.002;2023-04-15T07:46:52;100276.44;;;7.57;25.68
75424;BME280;64005;55.160;36.002;2023-04-15T07:49:21;100273.88;;;7.66;25.67
75424;BME280;64005;55.160;36.002;2023-04-15T07:51:49;100284.94;;;7.66;25.18
75424;BME280;64005;55.160;36.002;2023-04-15T07:54:18;100275.00;;;7.60;25.67
75424;BME280;64005;55.160;36.002;2023-04-15T07:56:47;100273.38;;;7.54;25.04
75424;BME280;64005;55.160;36.002;2023-04-15T07:59:17;100239.78;;;7.22;25.52
75424;BME280;64005;55.160;36.002;2023-04-15T08:01:45;100268.75;;;7.39;25.43
75424;BME280;64005;55.160;36.002;2023-04-15T08:04:16;100267.38;;;7.42;25.52
75424;BME280;64005;55.160;36.002;2023-04-15T08:06:44;100273.38;;;7.54;25.25
75424;BME280;64005;55.160;36.002;2023-04-15T08:09:15;100264.66;;;7.81;25.27
75424;BME280;64005;55.160;36.002;2023-04-15T08:11:44;100269.00;;;7.92;24.63
75424;BME280;64005;55.160;36.002;2023-04-15T08:14:13;100261.50;;;7.92;24.64
75424;BME280;64005;55.160;36.002;2023-04-15T08:16:43;100261.84;;;7.86;24.42
75424;BME280;64005;55.160;36.002;2023-04-15T08:19:12;100262.44;;;7.83;24.67
75424;BME280;64005;55.160;36.002;2023-04-15T08:21:42;100264.69;;;7.76;24.41
75424;BME280;64005;55.160;36.002;2023-04-15T08:24:11;100259.97;;;7.76;24.35
75424;BME280;64005;55.160;36.002;2023-04-15T08:26:40;100255.41;;;7.95;24.24
75424;BME280;64005;55.160;36.002;2023-04-15T08:29:09;100256.06;;;8.16;24.57
75424;BME280;64005;55.160;36.002;2023-04-15T08:31:38;100257.91;;;8.26;23.90
75424;BME280;64005;55.160;36.002;2023-04-15T08:34:07;100259.00;;;8.35;23.42
75424;BME280;64005;55.160;36.002;2023-04-15T08:36:36;100259.56;;;8.32;23.41
75424;BME280;64005;55.160;36.002;2023-04-15T08:39:07;100127.81;;;7.48;23.21
75424;BME280;64005;55.160;36.002;2023-04-15T08:41:40;100251.88;;;8.24;22.97
75424;BME280;64005;55.160;36.002;2023-04-15T08:44:14;100249.72;;;8.16;22.35
75424;BME280;64005;55.160;36.002;2023-04-15T08:46:42;100248.53;;;8.22;23.15
75424;BME280;64005;55.160;36.002;2023-04-15T08:49:11;100245.72;;;8.27;22.71
75424;BME280;64005;55.160;36.002;2023-04-15T08:51:40;100242.16;;;8.55;23.02
75424;BME280;64005;55.160;36.002;2023-04-15T08:54:11;100246.28;;;8.58;22.72
75424;BME280;64005;55.160;36.002;2023-04-15T08:56:41;100247.97;;;8.83;22.38
75424;BME280;64005;55.160;36.002;2023-04-15T08:59:09;100252.47;;;9.02;22.51
75424;BME280;64005;55.160;36.002;2023-04-15T09:01:39;100231.13;;;8.98;21.59
75424;BME280;64005;55.160;36.002;2023-04-15T09:04:08;100240.84;;;8.76;21.53
75424;BME280;64005;55.160;36.002;2023-04-15T09:06:39;100239.88;;;8.62;21.34
75424;BME280;64005;55.160;36.002;2023-04-15T09:09:07;100234.88;;;8.88;21.98
75424;BME280;64005;55.160;36.002;2023-04-15T09:11:38;100242.97;;;9.08;21.63
75424;BME280;64005;55.160;36.002;2023-04-15T09:14:06;100243.38;;;8.97;21.62
75424;BME280;64005;55.160;36.002;2023-04-15T09:16:56;100238.06;;;9.00;21.66
75424;BME280;64005;55.160;36.002;2023-04-15T09:19:25;100249.34;;;9.09;21.58
75424;BME280;64005;55.160;36.002;2023-04-15T09:21:55;100243.22;;;9.31;21.52
75424;BME280;64005;55.160;36.002;2023-04-15T09:24:25;100225.28;;;9.23;21.42
75424;BME280;64005;55.160;36.002;2023-04-15T09:27:02;100244.69;;;9.47;21.33
75424;BME280;64005;55.160;36.002;2023-04-15T09:29:31;100244.88;;;9.32;20.97
75424;BME280;64005;55.160;36.002;2023-04-15T09:32:09;100235.22;;;9.29;21.31
75424;BME280;64005;55.160;36.002;2023-04-15T09:34:38;100242.28;;;9.40;20.97
75424;BME280;64005;55.160;36.002;2023-04-15T09:37:07;100240.97;;;9.33;20.58
75424;BME280;64005;55.160;36.002;2023-04-15T09:39:47;100241.06;;;9.46;20.79
75424;BME280;64005;55.160;36.002;2023-04-15T09:42:19;100241.25;;;9.55;21.27
75424;BME280;64005;55.160;36.002;2023-04-15T09:44:51;100243.09;;;9.60;21.00
75424;BME280;64005;55.160;36.002;2023-04-15T09:47:29;100235.31;;;9.62;20.65
75424;BME280;64005;55.160;36.002;2023-04-15T09:49:58;100250.59;;;9.40;20.48
75424;BME280;64005;55.160;36.002;2023-04-15T09:52:28;100239.03;;;9.52;20.68
75424;BME280;64005;55.160;36.002;2023-04-15T09:54:58;100235.69;;;9.55;20.56
75424;BME280;64005;55.160;36.002;2023-04-15T09:57:35;100227.44;;;9.69;20.53
75424;BME280;64005;55.160;36.002;2023-04-15T10:00:06;100240.41;;;9.73;20.60
75424;BME280;64005;55.160;36.002;2023-04-15T10:02:37;100241.06;;;9.84;20.67
75424;BME280;64005;55.160;36.002;2023-04-15T10:05:10;100231.38;;;10.19;20.99
75424;BME280;64005;55.160;36.002;2023-04-15T10:10:11;100167.63;;;9.90;20.74
75424;BME280;64005;55.160;36.002;2023-04-15T10:12:43;100234.75;;;10.34;20.47
75424;BME280;64005;55.160;36.002;2023-04-15T10:15:15;100229.31;;;10.43;20.04
75424;BME280;64005;55.160;36.002;2023-04-15T10:17:44;100236.81;;;10.43;20.06
75424;BME280;64005;55.160;36.002;2023-04-15T10:20:18;100225.50;;;10.53;20.17
75424;BME280;64005;55.160;36.002;2023-04-15T10:22:48;100229.50;;;10.47;19.75
75424;BME280;64005;55.160;36.002;2023-04-15T10:25:17;100226.81;;;10.42;19.74
75424;BME280;64005;55.160;36.002;2023-04-15T10:27:49;100218.06;;;10.34;19.67
75424;BME280;64005;55.160;36.002;2023-04-15T10:30:19;100225.47;;;10.39;19.83
75424;BME280;64005;55.160;36.002;2023-04-15T10:32:49;100226.00;;;10.41;19.85
75424;BME280;64005;55.160;36.002;2023-04-15T10:35:18;100235.69;;;10.57;20.05
75424;BME280;64005;55.160;36.002;2023-04-15T10:37:48;100230.91;;;10.63;19.91
75424;BME280;64005;55.160;36.002;2023-04-15T10:40:27;100238.09;;;10.77;20.17
75424;BME280;64005;55.160;36.002;2023-04-15T10:43:00;100233.38;;;10.92;19.76
75424;BME280;64005;55.160;36.002;2023-04-15T10:48:17;100209.16;;;11.06;19.85
75424;BME280;64005;55.160;36.002;2023-04-15T11:00:08;100179.75;;;11.13;19.66
75424;BME280;64005;55.160;36.002;2023-04-15T11:02:43;100238.72;;;11.57;19.69
75424;BME280;64005;55.160;36.002;2023-04-15T11:07:53;100244.50;;;11.60;19.17
75424;BME280;64005;55.160;36.002;2023-04-15T11:10:49;100226.31;;;11.63;19.76
75424;BME280;64005;55.160;36.002;2023-04-15T11:13:27;100235.25;;;11.87;19.94
75424;BME280;64005;55.160;36.002;2023-04-15T11:16:00;100212.91;;;12.01;19.31
75424;BME280;64005;55.160;36.002;2023-04-15T11:18:32;100191.28;;;11.70;19.52
75424;BME280;64005;55.160;36.002;2023-04-15T11:21:04;100215.03;;;12.04;19.21
75424;BME280;64005;55.160;36.002;2023-04-15T11:23:36;100214.94;;;12.09;19.14
75424;BME280;64005;55.160;36.002;2023-04-15T11:26:05;100220.84;;;12.07;18.92
75424;BME280;64005;55.160;36.002;2023-04-15T11:28:36;100192.88;;;11.63;18.77
75424;BME280;64005;55.160;36.002;2023-04-15T11:31:08;100222.38;;;11.64;19.25
75424;BME280;64005;55.160;36.002;2023-04-15T11:33:45;100222.38;;;11.77;19.39
75424;BME280;64005;55.160;36.002;2023-04-15T11:36:14;100224.56;;;11.53;18.54
75424;BME280;64005;55.160;36.002;2023-04-15T11:38:46;100224.41;;;11.36;19.09
75424;BME280;64005;55.160;36.002;2023-04-15T11:41:19;100218.72;;;11.41;18.66
75424;BME280;64005;55.160;36.002;2023-04-15T11:43:48;100219.56;;;11.41;18.67
75424;BME280;64005;55.160;36.002;2023-04-15T11:46:20;100185.22;;;11.19;18.79
75424;BME280;64005;55.160;36.002;2023-04-15T11:48:49;100212.47;;;11.22;18.79
75424;BME280;64005;55.160;36.002;2023-04-15T11:51:18;100236.47;;;11.18;18.81
75424;BME280;64005;55.160;36.002;2023-04-15T11:53:48;100221.00;;;11.11;18.61
75424;BME280;64005;55.160;36.002;2023-04-15T11:56:21;100225.84;;;11.20;18.89
75424;BME280;64005;55.160;36.002;2023-04-15T11:58:51;100231.72;;;11.32;19.38
75424;BME280;64005;55.160;36.002;2023-04-15T12:01:30;100178.75;;;10.96;19.16
75424;BME280;64005;55.160;36.002;2023-04-15T12:03:57;100223.78;;;11.39;19.05
75424;BME280;64005;55.160;36.002;2023-04-15T12:06:31;100220.06;;;11.43;18.65
75424;BME280;64005;55.160;36.002;2023-04-15T12:09:06;100216.34;;;11.34;19.17
75424;BME280;64005;55.160;36.002;2023-04-15T12:11:44;100220.69;;;11.40;19.50
75424;BME280;64005;55.160;36.002;2023-04-15T12:14:24;100209.72;;;11.44;19.63
75424;BME280;64005;55.160;36.002;2023-04-15T12:16:57;100209.66;;;11.22;19.29
75424;BME280;64005;55.160;36.002;2023-04-15T12:19:29;100225.84;;;11.20;19.51
75424;BME280;64005;55.160;36.002;2023-04-15T12:21:59;100218.88;;;11.08;19.59
75424;BME280;64005;55.160;36.002;2023-04-15T12:24:30;100220.28;;;11.06;19.20
75424;BME280;64005;55.160;36.002;2023-04-15T12:27:01;100220.00;;;10.94;18.93
75424;BME280;64005;55.160;36.002;2023-04-15T12:29:30;100218.22;;;10.98;19.50
75424;BME280;64005;55.160;36.002;2023-04-15T12:32:04;100200.91;;;10.87;19.86
75424;BME280;64005;55.160;36.002;2023-04-15T12:34:34;100223.19;;;11.14;19.52
75424;BME280;64005;55.160;36.002;2023-04-15T12:37:04;100209.66;;;11.22;19.54
75424;BME280;64005;55.160;36.002;2023-04-15T12:39:35;100157.09;;;10.79;19.44
75424;BME280;64005;55.160;36.002;2023-04-15T12:42:04;100227.31;;;11.03;19.76
75424;BME280;64005;55.160;36.002;2023-04-15T12:44:32;100215.84;;;10.91;19.89
75424;BME280;64005;55.160;36.002;2023-04-15T12:47:02;100214.13;;;10.95;19.45
75424;BME280;64005;55.160;36.002;2023-04-15T12:49:30;100208.66;;;10.90;19.81
75424;BME280;64005;55.160;36.002;2023-04-15T12:51:59;100213.59;;;10.93;19.65
75424;BME280;64005;55.160;36.002;2023-04-15T12:54:28;100208.75;;;10.99;19.68
75424;BME280;64005;55.160;36.002;2023-04-15T12:56:57;100205.53;;;11.05;19.68
75424;BME280;64005;55.160;36.002;2023-04-15T13:02:02;100202.97;;;10.95;19.77
75424;BME280;64005;55.160;36.002;2023-04-15T13:04:30;100209.78;;;11.03;20.26
75424;BME280;64005;55.160;36.002;2023-04-15T13:06:57;100200.09;;;11.00;19.80
75424;BME280;64005;55.160;36.002;2023-04-15T13:09:25;100196.59;;;10.95;19.74
75424;BME280;64005;55.160;36.002;2023-04-15T13:11:53;100203.88;;;10.91;19.61
75424;BME280;64005;55.160;36.002;2023-04-15T13:14:21;100184.00;;;10.84;20.38
75424;BME280;64005;55.160;36.002;2023-04-15T13:16:48;100201.63;;;10.79;19.76
75424;BME280;64005;55.160;36.002;2023-04-15T13:19:18;100198.41;;;10.58;19.86
75424;BME280;64005;55.160;36.002;2023-04-15T13:21:46;100195.13;;;10.56;20.44